createdAt,value
2023-01-31T00:01:22.813Z,-1.35
2023-01-31T00:03:53.885Z,-1.34
2023-01-31T00:06:22.209Z,-1.33
2023-01-31T00:08:49.957Z,-1.32
2023-01-31T00:11:18.167Z,-1.33
2023-01-31T00:13:45.731Z,-1.35
2023-01-31T00:16:13.838Z,-1.36
2023-01-31T00:18:41.059Z,-1.35
2023-01-31T00:21:09.399Z,-1.34
2023-01-31T00:23:36.514Z,-1.34
2023-01-31T00:26:11.023Z,-1.33
2023-01-31T00:28:38.519Z,-1.32
2023-01-31T00:31:05.820Z,-1.32
2023-01-31T00:33:34.083Z,-1.32
2023-01-31T00:36:07.807Z,-1.33
2023-01-31T00:38:34.986Z,-1.35
2023-01-31T00:41:03.673Z,-1.36
2023-01-31T00:43:30.938Z,-1.39
2023-01-31T00:45:57.871Z,-1.40
2023-01-31T00:48:25.451Z,-1.42
2023-01-31T00:50:52.841Z,-1.43
2023-01-31T00:53:23.248Z,-1.47
2023-01-31T00:55:50.802Z,-1.52
2023-01-31T00:58:17.806Z,-1.55
2023-01-31T01:00:45.211Z,-1.56
2023-01-31T01:03:12.656Z,-1.59
2023-01-31T01:05:39.776Z,-1.59
2023-01-31T01:08:06.925Z,-1.60
2023-01-31T01:10:34.171Z,-1.58
2023-01-31T01:13:01.765Z,-1.57
2023-01-31T01:15:28.709Z,-1.55
2023-01-31T01:17:55.930Z,-1.52
2023-01-31T01:20:22.828Z,-1.51
2023-01-31T01:22:49.743Z,-1.50
2023-01-31T01:25:16.788Z,-1.49
2023-01-31T01:27:44.025Z,-1.47
2023-01-31T01:30:11.674Z,-1.44
2023-01-31T01:32:38.497Z,-1.42
2023-01-31T01:35:06.111Z,-1.40
2023-01-31T01:37:33.832Z,-1.39
2023-01-31T01:40:00.779Z,-1.38
2023-01-31T01:42:33.221Z,-1.38
2023-01-31T01:45:01.179Z,-1.36
2023-01-31T01:47:39.802Z,-1.34
2023-01-31T01:50:06.653Z,-1.32
2023-01-31T01:52:36.659Z,-1.30
2023-01-31T01:55:06.500Z,-1.30
2023-01-31T01:57:37.233Z,-1.28
2023-01-31T02:00:14.846Z,-1.27
2023-01-31T02:02:43.805Z,-1.25
2023-01-31T02:05:12.919Z,-1.25
2023-01-31T02:07:41.950Z,-1.24
2023-01-31T02:10:27.905Z,-1.23
2023-01-31T02:12:54.886Z,-1.22
2023-01-31T02:15:22.425Z,-1.22
2023-01-31T02:17:50.087Z,-1.22
2023-01-31T02:20:43.162Z,-1.23
2023-01-31T02:23:28.483Z,-1.26
2023-01-31T02:26:15.208Z,-1.24
2023-01-31T02:28:51.136Z,-1.22
2023-01-31T02:31:36.153Z,-1.20
2023-01-31T02:34:09.730Z,-1.19
2023-01-31T02:36:51.461Z,-1.18
2023-01-31T02:39:36.967Z,-1.19
2023-01-31T02:42:13.685Z,-1.17
2023-01-31T02:45:01.608Z,-1.16
2023-01-31T02:47:34.732Z,-1.14
2023-01-31T02:50:11.955Z,-1.13
2023-01-31T02:52:45.473Z,-1.11
2023-01-31T02:55:31.949Z,-1.10
2023-01-31T02:57:59.996Z,-1.08
2023-01-31T03:00:29.082Z,-1.08
2023-01-31T03:02:55.998Z,-1.07
2023-01-31T03:05:23.949Z,-1.06
2023-01-31T03:07:56.190Z,-1.04
2023-01-31T03:10:26.302Z,-1.05
2023-01-31T03:13:12.344Z,-1.06
2023-01-31T03:15:57.775Z,-1.09
2023-01-31T03:18:28.202Z,-1.11
2023-01-31T03:21:16.012Z,-1.14
2023-01-31T03:23:46.063Z,-1.16
2023-01-31T03:26:15.005Z,-1.18
2023-01-31T03:28:43.040Z,-1.18
2023-01-31T03:31:17.687Z,-1.16
2023-01-31T03:33:47.420Z,-1.14
2023-01-31T03:36:17.863Z,-1.12
2023-01-31T03:38:53.767Z,-1.10
2023-01-31T03:41:28.349Z,-1.08
2023-01-31T03:44:00.731Z,-1.05
2023-01-31T03:46:30.634Z,-1.03
2023-01-31T03:48:59.142Z,-1.02
2023-01-31T03:51:28.644Z,-1.02
2023-01-31T03:53:59.078Z,-1.02
2023-01-31T03:56:30.249Z,-1.01
2023-01-31T03:59:00.207Z,-1.01
2023-01-31T04:01:29.075Z,-1.02
2023-01-31T04:03:58.932Z,-1.01
2023-01-31T04:06:26.045Z,-1.00
2023-01-31T04:08:53.109Z,-0.98
2023-01-31T04:11:21.378Z,-0.97
2023-01-31T04:13:48.240Z,-0.95
2023-01-31T04:16:15.344Z,-0.94
2023-01-31T04:18:42.132Z,-0.93
2023-01-31T04:21:09.465Z,-0.91
2023-01-31T04:23:36.744Z,-0.90
2023-01-31T04:26:03.750Z,-0.88
2023-01-31T04:28:31.215Z,-0.87
2023-01-31T04:30:58.239Z,-0.87
2023-01-31T04:33:25.283Z,-0.88
2023-01-31T04:35:52.209Z,-0.88
2023-01-31T04:38:19.047Z,-0.89
2023-01-31T04:40:45.876Z,-0.88
2023-01-31T04:43:12.775Z,-0.87
2023-01-31T04:45:39.692Z,-0.87
2023-01-31T04:48:06.659Z,-0.86
2023-01-31T04:50:33.528Z,-0.86
2023-01-31T04:53:00.595Z,-0.88
2023-01-31T04:55:27.469Z,-0.88
2023-01-31T04:57:54.543Z,-0.88
2023-01-31T05:00:21.543Z,-0.89
2023-01-31T05:02:49.411Z,-0.91
2023-01-31T05:05:16.451Z,-0.92
2023-01-31T05:07:44.258Z,-0.93
2023-01-31T05:10:11.666Z,-0.93
2023-01-31T05:12:38.797Z,-0.94
2023-01-31T05:15:10.543Z,-0.95
2023-01-31T05:17:37.717Z,-0.95
2023-01-31T05:20:05.413Z,-0.97
2023-01-31T05:22:32.523Z,-0.99
2023-01-31T05:24:59.260Z,-1.01
2023-01-31T05:27:26.282Z,-1.03
2023-01-31T05:29:53.330Z,-1.06
2023-01-31T05:32:20.506Z,-1.08
2023-01-31T05:34:47.319Z,-1.06
2023-01-31T05:37:14.240Z,-1.05
2023-01-31T05:39:41.045Z,-1.06
2023-01-31T05:42:07.903Z,-1.06
2023-01-31T05:44:34.913Z,-1.05
2023-01-31T05:47:01.781Z,-1.04
2023-01-31T05:49:32.820Z,-1.01
2023-01-31T05:51:59.962Z,-1.00
2023-01-31T05:54:26.743Z,-0.99
2023-01-31T05:56:53.639Z,-0.98
2023-01-31T05:59:20.397Z,-0.97
2023-01-31T06:01:47.311Z,-0.97
2023-01-31T06:04:14.338Z,-0.97
2023-01-31T06:06:41.956Z,-0.96
2023-01-31T06:09:09.082Z,-0.95
2023-01-31T06:11:36.000Z,-0.93
2023-01-31T06:14:03.032Z,-0.94
2023-01-31T06:16:29.865Z,-0.95
2023-01-31T06:18:56.793Z,-0.95
2023-01-31T06:21:23.673Z,-0.97
2023-01-31T06:23:50.614Z,-1.00
2023-01-31T06:26:17.561Z,-0.97
2023-01-31T06:28:46.180Z,-0.91
2023-01-31T06:31:13.375Z,-0.85
2023-01-31T06:33:46.845Z,-0.78
2023-01-31T06:36:18.386Z,-0.72
2023-01-31T06:38:50.404Z,-0.70
2023-01-31T06:41:18.090Z,-0.68
2023-01-31T06:43:44.962Z,-0.65
2023-01-31T06:46:12.160Z,-0.63
2023-01-31T06:48:39.117Z,-0.59
2023-01-31T06:51:05.917Z,-0.55
2023-01-31T06:53:32.807Z,-0.52
2023-01-31T06:55:59.679Z,-0.49
2023-01-31T06:58:27.540Z,-0.51
2023-01-31T07:00:54.834Z,-0.52
2023-01-31T07:03:21.701Z,-0.52
2023-01-31T07:05:48.772Z,-0.49
2023-01-31T07:08:16.618Z,-0.48
2023-01-31T07:10:43.521Z,-0.50
2023-01-31T07:13:10.729Z,-0.47
2023-01-31T07:15:37.756Z,-0.46
2023-01-31T07:18:05.740Z,-0.43
2023-01-31T07:20:32.602Z,-0.39
2023-01-31T07:22:59.865Z,-0.36
2023-01-31T07:25:27.737Z,-0.32
2023-01-31T07:27:54.791Z,-0.28
2023-01-31T07:30:21.864Z,-0.22
2023-01-31T07:32:49.112Z,-0.14
2023-01-31T07:35:16.452Z,-0.08
2023-01-31T07:37:43.593Z,-0.03
2023-01-31T07:40:10.936Z,0.00
2023-01-31T07:42:37.824Z,0.06
2023-01-31T07:45:22.104Z,0.12
2023-01-31T07:47:50.663Z,0.15
2023-01-31T07:50:18.537Z,0.19
2023-01-31T07:52:45.678Z,0.16
2023-01-31T07:55:12.739Z,0.16
2023-01-31T07:57:39.637Z,0.24
2023-01-31T08:00:27.280Z,0.32
2023-01-31T08:03:12.826Z,0.39
2023-01-31T08:05:39.787Z,0.39
2023-01-31T08:08:15.630Z,0.37
2023-01-31T08:10:42.691Z,0.32
2023-01-31T08:13:11.238Z,0.30
2023-01-31T08:15:38.318Z,0.31
2023-01-31T08:18:06.565Z,0.28
2023-01-31T08:20:34.157Z,0.26
2023-01-31T08:23:01.121Z,0.23
2023-01-31T08:25:30.953Z,0.20
2023-01-31T08:27:58.209Z,0.11
2023-01-31T08:30:24.993Z,0.03
2023-01-31T08:32:51.801Z,-0.08
2023-01-31T08:35:18.712Z,-0.11
2023-01-31T08:37:45.859Z,-0.15
2023-01-31T08:40:13.107Z,-0.19
2023-01-31T08:42:39.968Z,-0.19
2023-01-31T08:45:07.247Z,-0.19
2023-01-31T08:47:36.141Z,-0.16
2023-01-31T08:50:03.069Z,-0.12
2023-01-31T08:52:34.848Z,-0.10
2023-01-31T08:55:01.883Z,-0.05
2023-01-31T08:57:29.241Z,-0.01
2023-01-31T08:59:56.247Z,0.01
2023-01-31T09:02:23.081Z,0.04
2023-01-31T09:04:50.191Z,0.09
2023-01-31T09:07:21.230Z,0.10
2023-01-31T09:09:48.995Z,0.06
2023-01-31T09:12:16.087Z,0.05
2023-01-31T09:14:42.949Z,0.02
2023-01-31T09:17:10.431Z,0.00
2023-01-31T09:19:38.636Z,-0.00
2023-01-31T09:22:05.820Z,0.04
2023-01-31T09:24:33.426Z,0.08
2023-01-31T09:27:00.534Z,0.16
2023-01-31T09:29:28.600Z,0.22
2023-01-31T09:31:55.704Z,0.26
2023-01-31T09:34:22.720Z,0.32
2023-01-31T09:36:49.866Z,0.43
2023-01-31T09:39:17.848Z,0.59
2023-01-31T09:41:49.195Z,0.68
2023-01-31T09:44:21.668Z,0.78
2023-01-31T09:47:06.502Z,0.88
2023-01-31T09:49:41.152Z,0.86
2023-01-31T09:52:09.742Z,0.76
2023-01-31T09:54:39.455Z,0.75
2023-01-31T09:57:12.572Z,0.73
2023-01-31T09:59:39.398Z,0.75
2023-01-31T10:02:25.179Z,0.76
2023-01-31T10:04:55.237Z,0.70
2023-01-31T10:07:26.238Z,0.74
2023-01-31T10:09:56.090Z,0.74
2023-01-31T10:12:43.211Z,0.71
2023-01-31T10:15:16.407Z,0.66
2023-01-31T10:17:46.392Z,0.69
2023-01-31T10:20:22.670Z,0.72
2023-01-31T10:23:02.015Z,0.66
2023-01-31T10:25:34.975Z,0.58
2023-01-31T10:28:17.579Z,0.51
2023-01-31T10:30:53.629Z,0.49
2023-01-31T10:33:39.655Z,0.46
2023-01-31T10:36:27.805Z,0.42
2023-01-31T10:39:02.549Z,0.38
2023-01-31T10:41:34.197Z,0.34
2023-01-31T10:44:03.852Z,0.24
2023-01-31T10:46:31.011Z,0.18
2023-01-31T10:48:58.267Z,0.11
2023-01-31T10:51:44.046Z,0.03
2023-01-31T10:54:25.425Z,-0.06
2023-01-31T10:56:52.357Z,-0.11
2023-01-31T10:59:19.227Z,-0.16
2023-01-31T11:01:46.281Z,-0.24
2023-01-31T11:04:34.417Z,-0.28
2023-01-31T11:07:02.171Z,-0.32
2023-01-31T11:09:31.916Z,-0.40
2023-01-31T11:12:03.824Z,-0.44
2023-01-31T11:14:31.048Z,-0.50
2023-01-31T11:17:09.114Z,-0.53
2023-01-31T11:19:43.547Z,-0.55
2023-01-31T11:22:19.979Z,-0.49
2023-01-31T11:24:48.815Z,-0.43
2023-01-31T11:27:24.746Z,-0.33
2023-01-31T11:29:54.186Z,-0.22
2023-01-31T11:32:22.996Z,-0.17
2023-01-31T11:34:59.024Z,-0.18
2023-01-31T11:37:27.835Z,-0.11
2023-01-31T11:40:02.058Z,-0.06
2023-01-31T11:42:29.199Z,-0.00
2023-01-31T11:45:00.558Z,0.15
2023-01-31T11:47:32.146Z,0.26
2023-01-31T11:50:00.180Z,0.32
2023-01-31T11:52:31.627Z,0.39
2023-01-31T11:55:06.557Z,0.42
2023-01-31T11:57:37.500Z,0.55
2023-01-31T12:00:06.462Z,0.73
2023-01-31T12:02:40.415Z,0.83
2023-01-31T12:05:08.713Z,0.83
2023-01-31T12:07:46.591Z,0.83
2023-01-31T12:10:28.386Z,0.83
2023-01-31T12:13:08.867Z,0.82
2023-01-31T12:15:57.482Z,0.80
2023-01-31T12:18:28.737Z,0.74
2023-01-31T12:21:15.021Z,0.73
2023-01-31T12:23:42.074Z,0.66
2023-01-31T12:26:38.480Z,0.57
2023-01-31T12:29:25.128Z,0.45
2023-01-31T12:31:52.143Z,0.43
2023-01-31T12:34:33.447Z,0.47
2023-01-31T12:37:12.663Z,0.59
2023-01-31T12:39:39.612Z,0.75
2023-01-31T12:42:29.975Z,0.90
2023-01-31T12:45:11.578Z,1.03
2023-01-31T12:47:51.030Z,1.13
2023-01-31T12:50:28.224Z,1.15
2023-01-31T12:53:09.274Z,1.14
2023-01-31T12:55:42.881Z,1.10
2023-01-31T12:58:16.292Z,1.04
2023-01-31T13:00:49.112Z,1.06
2023-01-31T13:03:16.085Z,1.15
2023-01-31T13:05:46.136Z,1.21
2023-01-31T13:08:18.197Z,1.25
2023-01-31T13:11:04.082Z,1.24
2023-01-31T13:13:37.989Z,1.29
2023-01-31T13:16:07.606Z,1.34
2023-01-31T13:18:34.873Z,1.34
2023-01-31T13:21:03.938Z,1.36
2023-01-31T13:23:34.152Z,1.43
2023-01-31T13:26:18.188Z,1.47
2023-01-31T13:28:51.422Z,1.54
2023-01-31T13:31:27.351Z,1.72
2023-01-31T13:34:14.794Z,1.85
2023-01-31T13:36:47.581Z,2.17
2023-01-31T13:39:18.746Z,2.63
2023-01-31T13:41:45.692Z,2.62
2023-01-31T13:44:13.780Z,2.56
2023-01-31T13:47:03.016Z,2.45
2023-01-31T13:49:36.306Z,2.33
2023-01-31T13:52:10.895Z,2.26
2023-01-31T13:54:43.183Z,2.10
2023-01-31T13:57:22.427Z,1.93
2023-01-31T14:00:15.696Z,1.78
2023-01-31T14:02:59.095Z,1.64
2023-01-31T14:05:45.172Z,1.52
2023-01-31T14:08:32.587Z,1.43
2023-01-31T14:11:00.901Z,1.34
2023-01-31T14:13:30.922Z,1.31
2023-01-31T14:15:58.247Z,1.31
2023-01-31T14:18:45.820Z,1.30
2023-01-31T14:21:31.826Z,1.33
2023-01-31T14:23:59.768Z,1.36
2023-01-31T14:26:33.049Z,1.38
2023-01-31T14:29:00.314Z,1.39
2023-01-31T14:31:27.400Z,1.37
2023-01-31T14:33:57.083Z,1.38
2023-01-31T14:36:32.426Z,1.36
2023-01-31T14:39:18.863Z,1.34
2023-01-31T14:42:04.710Z,1.30
2023-01-31T14:44:46.856Z,1.27
2023-01-31T14:47:25.809Z,1.26
2023-01-31T14:49:52.977Z,1.22
2023-01-31T14:52:28.114Z,1.18
2023-01-31T14:54:58.137Z,1.16
2023-01-31T14:57:26.724Z,1.15
2023-01-31T14:59:53.679Z,1.18
2023-01-31T15:02:21.029Z,1.18
2023-01-31T15:04:56.038Z,1.17
2023-01-31T15:07:23.430Z,1.17
2023-01-31T15:09:54.781Z,1.16
2023-01-31T15:12:40.769Z,1.17
2023-01-31T15:15:21.673Z,1.13
2023-01-31T15:17:53.600Z,1.07
2023-01-31T15:20:49.822Z,1.01
2023-01-31T15:23:21.341Z,0.91
2023-01-31T15:25:49.553Z,0.83
2023-01-31T15:28:19.983Z,0.79
2023-01-31T15:30:47.913Z,0.78
2023-01-31T15:33:31.281Z,0.76
2023-01-31T15:36:01.023Z,0.76
2023-01-31T15:38:47.085Z,0.78
2023-01-31T15:41:19.766Z,0.79
2023-01-31T15:43:47.125Z,0.79
2023-01-31T15:46:21.981Z,0.77
2023-01-31T15:48:49.622Z,0.81
2023-01-31T15:51:18.010Z,0.81
2023-01-31T15:53:45.468Z,0.79
2023-01-31T15:56:18.458Z,0.76
2023-01-31T15:58:47.358Z,0.74
2023-01-31T16:01:19.043Z,0.69
2023-01-31T16:03:50.872Z,0.65
2023-01-31T16:06:20.687Z,0.59
2023-01-31T16:08:51.537Z,0.55
2023-01-31T16:11:18.990Z,0.48
2023-01-31T16:13:46.353Z,0.38
2023-01-31T16:16:13.876Z,0.20
2023-01-31T16:18:47.620Z,0.03
2023-01-31T16:21:26.882Z,-0.08
2023-01-31T16:24:23.211Z,-0.15
2023-01-31T16:27:10.410Z,-0.26
2023-01-31T16:29:45.738Z,-0.36
2023-01-31T16:32:20.969Z,-0.46
2023-01-31T16:34:52.217Z,-0.55
2023-01-31T16:37:29.202Z,-0.65
2023-01-31T16:40:04.965Z,-0.75
2023-01-31T16:42:34.867Z,-0.86
2023-01-31T16:45:02.737Z,-0.99
2023-01-31T16:47:29.688Z,-1.08
2023-01-31T16:50:15.672Z,-1.15
2023-01-31T16:52:43.443Z,-1.25
2023-01-31T16:55:15.101Z,-1.32
2023-01-31T16:57:42.358Z,-1.39
2023-01-31T17:00:25.083Z,-1.43
2023-01-31T17:02:53.576Z,-1.48
2023-01-31T17:05:24.048Z,-1.53
2023-01-31T17:07:53.293Z,-1.57
2023-01-31T17:10:28.593Z,-1.61
2023-01-31T17:13:07.354Z,-1.66
2023-01-31T17:15:34.633Z,-1.72
2023-01-31T17:18:01.745Z,-1.72
2023-01-31T17:20:28.717Z,-1.73
2023-01-31T17:23:02.668Z,-1.71
2023-01-31T17:25:31.834Z,-1.67
2023-01-31T17:27:58.985Z,-1.64
2023-01-31T17:30:28.338Z,-1.64
2023-01-31T17:32:56.775Z,-1.64
2023-01-31T17:35:25.875Z,-1.62
2023-01-31T17:37:53.035Z,-1.61
2023-01-31T17:40:20.447Z,-1.63
2023-01-31T17:42:53.487Z,-1.68
2023-01-31T17:45:21.258Z,-1.70
2023-01-31T17:47:48.506Z,-1.72
2023-01-31T17:50:16.895Z,-1.76
2023-01-31T17:52:44.456Z,-1.80
2023-01-31T17:55:12.048Z,-1.81
2023-01-31T17:57:38.973Z,-1.83
2023-01-31T18:00:10.329Z,-1.88
2023-01-31T18:02:38.120Z,-1.92
2023-01-31T18:05:05.478Z,-1.93
2023-01-31T18:07:32.711Z,-1.94
2023-01-31T18:09:59.660Z,-1.95
2023-01-31T18:12:27.430Z,-1.97
2023-01-31T18:14:54.486Z,-1.97
2023-01-31T18:17:21.943Z,-1.95
2023-01-31T18:19:49.003Z,-1.92
2023-01-31T18:22:16.970Z,-1.89
2023-01-31T18:24:44.442Z,-1.86
2023-01-31T18:27:12.205Z,-1.82
2023-01-31T18:29:39.564Z,-1.79
2023-01-31T18:32:09.221Z,-1.76
2023-01-31T18:34:36.738Z,-1.73
2023-01-31T18:37:14.744Z,-1.69
2023-01-31T18:39:41.797Z,-1.66
2023-01-31T18:42:08.850Z,-1.65
2023-01-31T18:44:36.209Z,-1.63
2023-01-31T18:47:03.377Z,-1.62
2023-01-31T18:49:30.418Z,-1.60
2023-01-31T18:51:57.575Z,-1.59
2023-01-31T18:54:25.034Z,-1.58
2023-01-31T18:56:51.894Z,-1.57
2023-01-31T18:59:19.040Z,-1.55
2023-01-31T19:01:46.419Z,-1.51
2023-01-31T19:04:13.471Z,-1.48
2023-01-31T19:06:40.606Z,-1.43
2023-01-31T19:09:08.897Z,-1.39
2023-01-31T19:11:36.379Z,-1.37
2023-01-31T19:14:06.336Z,-1.35
2023-01-31T19:16:37.529Z,-1.32
2023-01-31T19:19:04.779Z,-1.31
2023-01-31T19:21:32.958Z,-1.30
2023-01-31T19:24:01.338Z,-1.30
2023-01-31T19:26:29.327Z,-1.31
2023-01-31T19:28:58.144Z,-1.32
2023-01-31T19:31:26.525Z,-1.34
2023-01-31T19:33:54.586Z,-1.36
2023-01-31T19:36:23.465Z,-1.38
2023-01-31T19:38:51.131Z,-1.39
2023-01-31T19:41:20.432Z,-1.41
2023-01-31T19:43:49.124Z,-1.40
2023-01-31T19:46:16.289Z,-1.39
2023-01-31T19:48:43.436Z,-1.40
2023-01-31T19:51:12.029Z,-1.40
2023-01-31T19:53:39.821Z,-1.40
2023-01-31T19:56:07.668Z,-1.47
2023-01-31T19:58:34.924Z,-1.50
2023-01-31T20:01:03.412Z,-1.53
2023-01-31T20:03:30.561Z,-1.59
2023-01-31T20:06:27.190Z,-1.61
2023-01-31T20:08:55.783Z,-1.61
2023-01-31T20:11:23.861Z,-1.60
2023-01-31T20:13:51.933Z,-1.57
2023-01-31T20:16:20.014Z,-1.55
2023-01-31T20:18:47.573Z,-1.59
2023-01-31T20:21:16.269Z,-1.60
2023-01-31T20:23:43.631Z,-1.60
2023-01-31T20:26:11.814Z,-1.58
2023-01-31T20:28:39.261Z,-1.56
2023-01-31T20:31:08.018Z,-1.55
2023-01-31T20:33:35.530Z,-1.54
2023-01-31T20:36:02.992Z,-1.53
2023-01-31T20:38:30.469Z,-1.53
2023-01-31T20:40:57.803Z,-1.52
2023-01-31T20:43:25.470Z,-1.54
2023-01-31T20:45:52.758Z,-1.55
2023-01-31T20:48:21.955Z,-1.55
2023-01-31T20:50:55.547Z,-1.56
2023-01-31T20:53:22.893Z,-1.56
2023-01-31T20:56:00.593Z,-1.56
2023-01-31T20:58:29.383Z,-1.55
2023-01-31T21:00:56.975Z,-1.55
2023-01-31T21:03:24.362Z,-1.53
2023-01-31T21:05:51.879Z,-1.51
2023-01-31T21:08:19.553Z,-1.48
2023-01-31T21:10:50.597Z,-1.46
2023-01-31T21:13:18.557Z,-1.44
2023-01-31T21:15:55.398Z,-1.42
2023-01-31T21:18:24.970Z,-1.39
2023-01-31T21:20:51.907Z,-1.38
2023-01-31T21:23:18.955Z,-1.37
2023-01-31T21:25:46.017Z,-1.34
2023-01-31T21:28:13.159Z,-1.32
2023-01-31T21:30:40.411Z,-1.30
2023-01-31T21:33:07.875Z,-1.30
2023-01-31T21:35:34.832Z,-1.29
2023-01-31T21:38:01.982Z,-1.28
2023-01-31T21:40:28.940Z,-1.26
2023-01-31T21:42:56.000Z,-1.24
2023-01-31T21:45:39.005Z,-1.21
2023-01-31T21:48:28.780Z,-1.18
2023-01-31T21:50:56.958Z,-1.16
2023-01-31T21:53:23.877Z,-1.13
2023-01-31T21:55:59.349Z,-1.11
2023-01-31T21:58:26.515Z,-1.09
2023-01-31T22:00:53.556Z,-1.06
2023-01-31T22:03:20.820Z,-1.05
2023-01-31T22:05:47.870Z,-1.03
2023-01-31T22:08:15.023Z,-1.02
2023-01-31T22:10:42.180Z,-1.00
2023-01-31T22:13:09.132Z,-0.99
2023-01-31T22:15:36.208Z,-0.98
2023-01-31T22:18:03.544Z,-0.97
2023-01-31T22:20:30.389Z,-0.96
2023-01-31T22:22:57.545Z,-0.94
2023-01-31T22:25:24.597Z,-0.93
2023-01-31T22:27:52.062Z,-0.92
2023-01-31T22:30:19.138Z,-0.89
2023-01-31T22:32:46.270Z,-0.87
2023-01-31T22:35:13.427Z,-0.86
2023-01-31T22:37:40.783Z,-0.84
2023-01-31T22:40:08.255Z,-0.82
2023-01-31T22:42:35.302Z,-0.81
2023-01-31T22:45:02.459Z,-0.81
2023-01-31T22:47:29.608Z,-0.80
2023-01-31T22:49:56.779Z,-0.79
2023-01-31T22:52:23.821Z,-0.77
2023-01-31T22:54:50.976Z,-0.78
2023-01-31T22:57:17.925Z,-0.77
2023-01-31T22:59:44.987Z,-0.77
2023-01-31T23:02:12.029Z,-0.77
2023-01-31T23:04:39.204Z,-0.76
2023-01-31T23:07:06.343Z,-0.76
2023-01-31T23:09:33.512Z,-0.76
2023-01-31T23:12:00.448Z,-0.76
2023-01-31T23:14:27.916Z,-0.77
2023-01-31T23:17:13.485Z,-0.77
2023-01-31T23:19:40.440Z,-0.79
2023-01-31T23:22:07.492Z,-0.80
2023-01-31T23:24:34.751Z,-0.81
2023-01-31T23:27:01.977Z,-0.81
2023-01-31T23:29:29.166Z,-0.81
2023-01-31T23:31:56.383Z,-0.81
2023-01-31T23:34:23.678Z,-0.81
2023-01-31T23:36:50.837Z,-0.81
2023-01-31T23:39:17.783Z,-0.81
2023-01-31T23:41:44.938Z,-0.81
2023-01-31T23:44:11.996Z,-0.80
2023-01-31T23:46:39.002Z,-0.80
2023-01-31T23:49:06.104Z,-0.79
2023-01-31T23:51:33.386Z,-0.81
2023-01-31T23:54:00.625Z,-0.81
2023-01-31T23:56:27.869Z,-0.84
2023-01-31T23:58:55.132Z,-0.86
